createdAt,value
2023-04-13T00:00:33.916Z,23.05
2023-04-13T00:03:17.798Z,23.93
2023-04-13T00:06:05.882Z,21.63
2023-04-13T00:09:00.850Z,22.63
2023-04-13T00:11:48.897Z,24.17
2023-04-13T00:14:34.182Z,23.65
2023-04-13T00:17:24.463Z,24.38
2023-04-13T00:20:07.786Z,24.27
2023-04-13T00:22:55.882Z,24.33
2023-04-13T00:25:37.000Z,23.50
2023-04-13T00:28:26.218Z,23.85
2023-04-13T00:31:08.119Z,25.67
2023-04-13T00:33:58.112Z,25.52
2023-04-13T00:36:39.032Z,24.87
2023-04-13T00:39:29.911Z,25.42
2023-04-13T00:42:12.186Z,26.70
2023-04-13T00:45:00.951Z,24.55
2023-04-13T00:47:43.307Z,25.27
2023-04-13T00:50:32.888Z,24.92
2023-04-13T00:53:16.033Z,24.70
2023-04-13T00:56:04.933Z,25.73
2023-04-13T00:58:46.677Z,24.88
2023-04-13T01:01:36.991Z,25.10
2023-04-13T01:04:18.989Z,26.58
2023-04-13T01:07:15.931Z,26.52
2023-04-13T01:10:15.896Z,27.00
2023-04-13T01:13:12.925Z,26.75
2023-04-13T01:16:04.207Z,26.35
2023-04-13T01:18:57.940Z,27.23
2023-04-13T01:21:40.322Z,25.83
2023-04-13T01:24:51.931Z,26.38
2023-04-13T01:27:51.737Z,26.08
2023-04-13T01:30:42.272Z,26.85
2023-04-13T01:33:25.407Z,26.65
2023-04-13T01:36:14.939Z,27.42
2023-04-13T01:38:56.035Z,28.38
2023-04-13T01:41:44.922Z,27.88
2023-04-13T01:44:28.087Z,27.10
2023-04-13T01:47:23.063Z,26.73
2023-04-13T01:50:28.389Z,26.92
2023-04-13T01:53:27.958Z,26.63
2023-04-13T01:56:13.021Z,26.73
2023-04-13T01:59:06.974Z,27.95
2023-04-13T02:01:52.630Z,26.20
2023-04-13T02:04:40.953Z,27.08
2023-04-13T02:07:23.822Z,26.80
2023-04-13T02:10:19.972Z,26.88
2023-04-13T02:13:11.104Z,25.98
2023-04-13T02:15:53.004Z,26.65
2023-04-13T02:18:43.113Z,27.07
2023-04-13T02:21:24.959Z,27.07
2023-04-13T02:24:14.235Z,26.03
2023-04-13T02:26:55.970Z,26.30
2023-04-13T02:29:44.155Z,26.60
2023-04-13T02:32:26.070Z,26.30
2023-04-13T02:35:17.128Z,27.57
2023-04-13T02:37:58.986Z,26.60
2023-04-13T02:40:47.285Z,26.60
2023-04-13T02:43:29.007Z,27.50
2023-04-13T02:46:17.139Z,26.15
2023-04-13T02:49:04.011Z,26.47
2023-04-13T02:51:53.128Z,26.87
2023-04-13T02:54:53.028Z,26.33
2023-04-13T02:57:42.261Z,26.23
2023-04-13T03:00:31.982Z,26.73
2023-04-13T03:03:24.115Z,25.37
2023-04-13T03:06:07.984Z,24.57
2023-04-13T03:09:10.003Z,26.17
2023-04-13T03:12:03.999Z,24.93
2023-04-13T03:14:48.142Z,24.30
2023-04-13T03:17:38.062Z,25.53
2023-04-13T03:20:25.186Z,26.87
2023-04-13T03:23:16.011Z,26.43
2023-04-13T03:26:00.274Z,25.23
2023-04-13T03:28:48.038Z,25.97
2023-04-13T03:31:30.563Z,26.00
2023-04-13T03:34:19.374Z,26.30
2023-04-13T03:37:01.325Z,27.88
2023-04-13T03:39:49.026Z,28.17
2023-04-13T03:42:34.175Z,28.90
2023-04-13T03:45:22.029Z,28.48
2023-04-13T03:48:07.163Z,29.75
2023-04-13T03:50:55.050Z,28.00
2023-04-13T03:53:44.226Z,27.75
2023-04-13T03:56:36.035Z,28.80
2023-04-13T03:59:19.164Z,28.10
2023-04-13T04:02:09.174Z,26.33
2023-04-13T04:04:51.233Z,26.90
2023-04-13T04:07:39.085Z,26.35
2023-04-13T04:10:34.045Z,28.67
2023-04-13T04:13:37.054Z,26.50
2023-04-13T04:16:28.236Z,25.65
2023-04-13T04:19:16.099Z,26.75
2023-04-13T04:22:07.105Z,26.70
2023-04-13T04:24:50.050Z,25.55
2023-04-13T04:27:38.908Z,25.95
2023-04-13T04:30:21.132Z,25.38
2023-04-13T04:33:11.242Z,25.27
2023-04-13T04:35:57.108Z,25.58
2023-04-13T04:38:46.325Z,24.20
2023-04-13T04:41:28.129Z,24.15
2023-04-13T04:44:18.231Z,23.30
2023-04-13T04:47:01.068Z,24.52
2023-04-13T04:49:53.150Z,24.00
2023-04-13T04:52:41.105Z,24.17
2023-04-13T04:55:28.169Z,23.38
2023-04-13T04:58:17.130Z,24.65
2023-04-13T05:01:03.924Z,22.38
2023-04-13T05:03:54.083Z,22.92
2023-04-13T05:06:45.285Z,22.45
2023-04-13T05:09:38.079Z,22.10
2023-04-13T05:12:26.223Z,21.58
2023-04-13T05:15:11.110Z,20.75
2023-04-13T05:17:59.343Z,22.40
2023-04-13T05:20:41.109Z,20.13
2023-04-13T05:23:31.303Z,20.73
2023-04-13T05:26:17.119Z,21.33
2023-04-13T05:29:08.124Z,21.50
2023-04-13T05:31:52.213Z,21.25
2023-04-13T05:34:40.194Z,21.65
2023-04-13T05:37:28.175Z,20.92
2023-04-13T05:40:19.248Z,20.60
2023-04-13T05:43:01.146Z,20.55
2023-04-13T05:45:48.997Z,19.90
2023-04-13T05:48:37.100Z,20.48
2023-04-13T05:51:30.237Z,21.15
2023-04-13T05:54:12.097Z,21.35
2023-04-13T05:57:05.524Z,21.20
2023-04-13T05:59:51.802Z,21.05
2023-04-13T06:02:43.396Z,20.63
2023-04-13T06:05:25.188Z,21.90
2023-04-13T06:08:13.566Z,20.20
2023-04-13T06:11:08.130Z,19.67
2023-04-13T06:14:00.068Z,20.20
2023-04-13T06:16:41.179Z,20.98
2023-04-13T06:19:29.300Z,21.27
2023-04-13T06:22:11.133Z,20.65
2023-04-13T06:24:59.230Z,21.48
2023-04-13T06:27:43.147Z,22.13
2023-04-13T06:30:34.298Z,21.08
2023-04-13T06:33:19.154Z,21.30
2023-04-13T06:36:08.381Z,19.95
2023-04-13T06:38:50.518Z,19.70
2023-04-13T06:41:39.276Z,20.65
2023-04-13T06:44:43.175Z,18.17
2023-04-13T06:47:33.428Z,17.48
2023-04-13T06:50:17.185Z,16.83
2023-04-13T06:53:05.271Z,17.92
2023-04-13T06:55:49.156Z,16.02
2023-04-13T06:58:37.823Z,16.50
2023-04-13T07:01:19.250Z,16.60
2023-04-13T07:04:10.446Z,15.63
2023-04-13T07:06:54.196Z,14.70
2023-04-13T07:09:49.149Z,15.32
2023-04-13T07:12:37.197Z,15.75
2023-04-13T07:15:19.352Z,15.30
2023-04-13T07:18:07.176Z,13.70
2023-04-13T07:20:50.288Z,15.05
2023-04-13T07:23:43.246Z,14.57
2023-04-13T07:26:26.104Z,13.88
2023-04-13T07:29:20.202Z,13.82
2023-04-13T07:32:08.284Z,13.32
2023-04-13T07:34:59.217Z,12.85
2023-04-13T07:37:46.651Z,11.32
2023-04-13T07:40:35.259Z,12.75
2023-04-13T07:43:20.495Z,11.73
2023-04-13T07:46:18.231Z,11.93
2023-04-13T07:49:00.603Z,12.65
2023-04-13T07:51:51.664Z,12.90
2023-04-13T07:54:36.408Z,11.80
2023-04-13T07:57:28.219Z,12.88
2023-04-13T08:00:14.290Z,14.48
2023-04-13T08:03:05.350Z,16.98
2023-04-13T08:05:47.313Z,12.55
2023-04-13T08:08:36.543Z,12.40
2023-04-13T08:11:32.210Z,12.35
2023-04-13T08:14:22.226Z,12.02
2023-04-13T08:17:06.042Z,12.65
2023-04-13T08:19:54.236Z,11.88
2023-04-13T08:22:36.885Z,11.15
2023-04-13T08:25:25.239Z,10.30
2023-04-13T08:28:09.646Z,11.00
2023-04-13T08:30:57.242Z,11.50
2023-04-13T08:33:39.507Z,10.60
2023-04-13T08:36:27.238Z,10.23
2023-04-13T08:39:13.612Z,10.25
2023-04-13T08:42:03.411Z,10.80
2023-04-13T08:44:48.369Z,10.52
2023-04-13T08:47:37.288Z,10.68
2023-04-13T08:50:20.366Z,11.23
2023-04-13T08:53:10.299Z,11.30
2023-04-13T08:55:53.355Z,10.93
2023-04-13T08:58:43.241Z,9.65
2023-04-13T09:01:27.545Z,9.90
2023-04-13T09:04:17.798Z,11.48
2023-04-13T09:07:07.051Z,11.45
2023-04-13T09:10:03.266Z,11.10
2023-04-13T09:12:52.392Z,11.20
2023-04-13T09:15:34.297Z,10.57
2023-04-13T09:18:50.369Z,10.60
2023-04-13T09:21:50.483Z,10.98
2023-04-13T09:24:47.406Z,9.90
2023-04-13T09:27:30.306Z,10.18
2023-04-13T09:30:19.506Z,10.43
2023-04-13T09:33:11.326Z,11.00
2023-04-13T09:36:01.385Z,10.45
2023-04-13T09:38:43.286Z,10.32
2023-04-13T09:41:46.623Z,9.93
2023-04-13T09:44:31.441Z,10.20
2023-04-13T09:47:19.454Z,10.55
2023-04-13T09:50:02.321Z,9.55
2023-04-13T09:52:52.427Z,10.45
2023-04-13T09:55:34.342Z,10.57
2023-04-13T09:58:25.486Z,9.70
2023-04-13T10:01:08.367Z,9.82
2023-04-13T10:03:57.184Z,9.65
2023-04-13T10:06:39.329Z,9.30
2023-04-13T10:09:36.261Z,9.68
2023-04-13T10:12:25.334Z,9.65
2023-04-13T10:15:13.455Z,9.57
2023-04-13T10:18:10.440Z,9.88
2023-04-13T10:20:52.433Z,9.32
2023-04-13T10:23:41.333Z,9.63
2023-04-13T10:26:24.432Z,8.85
2023-04-13T10:29:15.382Z,9.05
2023-04-13T10:32:03.655Z,8.50
2023-04-13T10:34:52.656Z,8.65
2023-04-13T10:37:36.061Z,8.82
2023-04-13T10:40:23.367Z,8.82
2023-04-13T10:43:06.432Z,8.65
2023-04-13T10:45:54.383Z,9.10
2023-04-13T10:48:35.521Z,8.40
2023-04-13T10:51:23.343Z,8.18
2023-04-13T10:54:11.407Z,8.30
2023-04-13T10:57:04.368Z,7.32
2023-04-13T10:59:58.926Z,8.35
2023-04-13T11:02:47.526Z,7.55
2023-04-13T11:05:29.570Z,7.72
2023-04-13T11:08:23.348Z,7.22
2023-04-13T11:11:18.341Z,7.20
2023-04-13T11:14:06.341Z,6.78
2023-04-13T11:16:58.429Z,7.40
2023-04-13T11:19:54.374Z,7.32
2023-04-13T11:22:47.415Z,7.50
2023-04-13T11:25:36.446Z,7.75
2023-04-13T11:28:17.538Z,7.25
2023-04-13T11:31:05.377Z,7.38
2023-04-13T11:33:48.453Z,7.15
2023-04-13T11:36:38.392Z,7.38
2023-04-13T11:39:20.531Z,7.53
2023-04-13T11:42:13.498Z,7.50
2023-04-13T11:44:54.529Z,7.78
2023-04-13T11:47:43.772Z,7.20
2023-04-13T11:50:26.739Z,6.60
2023-04-13T11:53:16.382Z,7.20
2023-04-13T11:55:58.125Z,7.30
2023-04-13T11:58:46.411Z,7.25
2023-04-13T12:01:34.141Z,7.57
2023-04-13T12:04:22.524Z,6.78
2023-04-13T12:07:06.028Z,6.45
2023-04-13T12:10:06.046Z,7.00
2023-04-13T12:12:56.853Z,6.10
2023-04-13T12:15:49.516Z,5.50
2023-04-13T12:18:54.372Z,5.45
2023-04-13T12:21:36.417Z,5.75
2023-04-13T12:24:27.505Z,5.80
2023-04-13T12:30:09.601Z,6.15
2023-04-13T12:32:52.501Z,5.53
2023-04-13T12:35:40.639Z,5.78
2023-04-13T12:38:21.443Z,5.68
2023-04-13T12:41:12.039Z,5.38
2023-04-13T12:43:53.472Z,5.75
2023-04-13T12:46:42.597Z,5.40
2023-04-13T12:49:23.788Z,5.18
2023-04-13T12:52:11.557Z,4.55
2023-04-13T12:54:53.656Z,5.00
2023-04-13T12:57:43.536Z,4.50
2023-04-13T13:00:25.487Z,4.60
2023-04-13T13:03:14.775Z,4.10
2023-04-13T13:05:57.476Z,4.03
2023-04-13T13:08:46.014Z,4.03
2023-04-13T13:11:41.501Z,3.88
2023-04-13T13:14:31.799Z,4.03
2023-04-13T13:17:12.484Z,4.53
2023-04-13T13:20:01.296Z,4.13
2023-04-13T13:22:44.527Z,4.20
2023-04-13T13:25:34.859Z,3.67
2023-04-13T13:28:17.499Z,3.20
2023-04-13T13:31:07.948Z,3.50
2023-04-13T13:33:48.512Z,3.60
2023-04-13T13:36:36.738Z,3.30
2023-04-13T13:39:18.513Z,3.08
2023-04-13T13:42:06.798Z,3.30
2023-04-13T13:44:48.573Z,3.38
2023-04-13T13:47:38.765Z,2.75
2023-04-13T13:50:20.837Z,3.03
2023-04-13T13:53:10.655Z,2.95
2023-04-13T13:55:53.549Z,3.80
2023-04-13T13:58:41.649Z,3.42
2023-04-13T14:01:23.555Z,4.68
2023-04-13T14:04:13.690Z,5.65
2023-04-13T14:06:55.927Z,3.50
2023-04-13T14:09:50.473Z,2.80
2023-04-13T14:12:38.527Z,3.33
2023-04-13T14:15:20.615Z,3.20
2023-04-13T14:18:10.850Z,3.15
2023-04-13T14:20:54.633Z,2.58
2023-04-13T14:23:43.508Z,2.75
2023-04-13T14:26:25.918Z,2.60
2023-04-13T14:29:15.528Z,2.45
2023-04-13T14:31:57.068Z,3.08
2023-04-13T14:34:44.575Z,3.60
2023-04-13T14:37:28.623Z,3.40
2023-04-13T14:40:20.589Z,3.00
2023-04-13T14:43:04.016Z,3.05
2023-04-13T14:45:51.549Z,3.65
2023-04-13T14:48:33.089Z,3.95
2023-04-13T14:51:23.919Z,4.28
2023-04-13T14:54:06.679Z,3.10
2023-04-13T14:56:55.583Z,3.53
2023-04-13T14:59:37.378Z,3.60
2023-04-13T15:02:25.675Z,3.67
2023-04-13T15:05:06.801Z,3.53
2023-04-13T15:07:54.576Z,3.15
2023-04-13T15:10:51.558Z,3.00
2023-04-13T15:13:39.593Z,3.53
2023-04-13T15:16:20.841Z,3.30
2023-04-13T15:19:08.605Z,4.32
2023-04-13T15:21:49.732Z,3.25
2023-04-13T15:24:37.592Z,3.67
2023-04-13T15:27:20.744Z,3.22
2023-04-13T15:30:09.647Z,3.45
2023-04-13T15:32:50.790Z,3.33
2023-04-13T15:35:41.586Z,3.35
2023-04-13T15:38:22.845Z,3.83
2023-04-13T15:41:10.620Z,2.97
2023-04-13T15:43:53.840Z,4.00
2023-04-13T15:46:42.622Z,3.05
2023-04-13T15:49:23.717Z,3.58
2023-04-13T15:52:11.601Z,3.55
2023-04-13T15:54:53.725Z,3.40
2023-04-13T15:57:41.626Z,3.78
2023-04-13T16:00:26.191Z,3.55
2023-04-13T16:03:13.869Z,3.90
2023-04-13T16:05:56.988Z,3.83
2023-04-13T16:08:44.694Z,4.05
2023-04-13T16:11:39.608Z,3.85
2023-04-13T16:14:27.691Z,3.75
2023-04-13T16:17:10.769Z,3.67
2023-04-13T16:19:58.638Z,3.50
2023-04-13T16:22:41.614Z,3.15
2023-04-13T16:25:30.835Z,3.63
2023-04-13T16:28:11.800Z,3.45
2023-04-13T16:31:00.670Z,3.70
2023-04-13T16:33:43.801Z,3.60
2023-04-13T16:36:32.686Z,3.90
2023-04-13T16:39:15.825Z,3.30
2023-04-13T16:42:03.773Z,3.78
2023-04-13T16:44:44.780Z,3.42
2023-04-13T16:47:32.717Z,3.83
2023-04-13T16:50:16.795Z,4.30
2023-04-13T16:53:04.960Z,4.43
2023-04-13T16:55:45.870Z,4.40
2023-04-13T16:58:33.662Z,4.78
2023-04-13T17:01:14.919Z,3.78
2023-04-13T17:04:02.806Z,4.10
2023-04-13T17:06:47.447Z,4.93
2023-04-13T17:09:36.678Z,4.60
2023-04-13T17:12:31.657Z,4.32
2023-04-13T17:15:19.707Z,4.32
2023-04-13T17:18:00.815Z,4.68
2023-04-13T17:20:48.688Z,4.65
2023-04-13T17:23:33.270Z,4.70
2023-04-13T17:26:21.724Z,4.78
2023-04-13T17:29:02.920Z,5.63
2023-04-13T17:31:50.746Z,5.80
2023-04-13T17:34:31.814Z,5.85
2023-04-13T17:37:19.689Z,6.85
2023-04-13T17:40:02.961Z,6.65
2023-04-13T17:42:50.736Z,7.20
2023-04-13T17:45:31.796Z,6.90
2023-04-13T17:48:20.014Z,7.50
2023-04-13T17:51:00.832Z,7.57
2023-04-13T17:53:49.049Z,7.68
2023-04-13T17:56:31.836Z,7.95
2023-04-13T17:59:21.756Z,7.85
2023-04-13T18:02:03.061Z,8.48
2023-04-13T18:04:50.712Z,8.80
2023-04-13T18:07:32.140Z,8.75
2023-04-13T18:10:26.728Z,8.65
2023-04-13T18:13:16.828Z,8.98
2023-04-13T18:15:58.894Z,8.88
2023-04-13T18:18:47.341Z,10.25
2023-04-13T18:21:27.747Z,9.65
2023-04-13T18:24:15.903Z,10.43
2023-04-13T18:26:58.760Z,10.52
2023-04-13T18:29:49.280Z,10.85
2023-04-13T18:32:30.795Z,11.55
2023-04-13T18:35:18.914Z,12.70
2023-04-13T18:38:00.745Z,11.13
2023-04-13T18:40:50.318Z,12.07
2023-04-13T18:43:31.731Z,11.60
2023-04-13T18:46:21.932Z,12.32
2023-04-13T18:49:05.748Z,12.10
2023-04-13T18:51:53.922Z,12.45
2023-04-13T18:54:36.068Z,13.50
2023-04-13T18:57:23.863Z,13.55
2023-04-13T19:00:12.785Z,13.50
2023-04-13T19:03:03.108Z,12.95
2023-04-13T19:05:44.768Z,13.88
2023-04-13T19:08:32.904Z,14.35
2023-04-13T19:11:27.947Z,14.48
2023-04-13T19:14:15.898Z,13.35
2023-04-13T19:16:58.768Z,14.75
2023-04-13T19:19:49.045Z,13.60
2023-04-13T19:22:29.766Z,14.35
2023-04-13T19:25:18.888Z,13.75
2023-04-13T19:27:59.774Z,14.02
2023-04-13T19:30:47.880Z,13.77
2023-04-13T19:33:28.786Z,14.88
2023-04-13T19:36:18.878Z,15.65
2023-04-13T19:38:59.864Z,14.90
2023-04-13T19:41:48.887Z,15.32
2023-04-13T19:44:29.814Z,16.25
2023-04-13T19:47:17.911Z,15.13
2023-04-13T19:49:58.789Z,15.60
2023-04-13T19:52:50.278Z,16.55
2023-04-13T19:55:32.132Z,16.17
2023-04-13T19:58:19.948Z,15.98
2023-04-13T20:01:01.082Z,15.98
2023-04-13T20:03:49.117Z,16.27
2023-04-13T20:06:29.822Z,16.48
2023-04-13T20:09:21.179Z,16.88
2023-04-13T20:12:15.807Z,17.02
2023-04-13T20:15:04.849Z,16.98
2023-04-13T20:17:53.867Z,16.13
2023-04-13T20:20:44.249Z,16.85
2023-04-13T20:23:24.849Z,17.13
2023-04-13T20:26:14.987Z,17.25
2023-04-13T20:28:56.828Z,16.33
2023-04-13T20:31:46.082Z,16.77
2023-04-13T20:34:27.845Z,16.67
2023-04-13T20:37:18.521Z,16.40
2023-04-13T20:39:59.840Z,16.25
2023-04-13T20:42:50.926Z,16.88
2023-04-13T20:45:33.837Z,16.45
2023-04-13T20:51:20.830Z,16.35
2023-04-13T20:54:02.742Z,16.27
2023-04-13T20:56:52.188Z,15.95
2023-04-13T20:59:38.387Z,15.98
2023-04-13T21:02:25.991Z,14.95
2023-04-13T21:05:08.211Z,16.27
2023-04-13T21:07:57.242Z,14.60
2023-04-13T21:10:51.827Z,14.93
2023-04-13T21:13:39.902Z,14.60
2023-04-13T21:16:28.210Z,13.82
2023-04-13T21:19:15.862Z,14.90
2023-04-13T21:21:57.589Z,15.52
2023-04-13T21:24:44.855Z,14.60
2023-04-13T21:27:31.729Z,13.40
2023-04-13T21:30:20.885Z,14.18
2023-04-13T21:33:04.002Z,15.02
2023-04-13T21:35:51.873Z,13.18
2023-04-13T21:38:33.007Z,14.00
2023-04-13T21:41:24.906Z,14.07
2023-04-13T21:44:06.575Z,13.68
2023-04-13T21:46:57.897Z,13.52
2023-04-13T21:49:42.473Z,14.80
2023-04-13T21:52:29.908Z,13.05
2023-04-13T21:55:17.683Z,12.82
2023-04-13T21:58:05.912Z,14.00
2023-04-13T22:00:48.023Z,13.35
2023-04-13T22:03:36.060Z,13.82
2023-04-13T22:06:19.013Z,13.50
2023-04-13T22:09:06.922Z,13.05
2023-04-13T22:12:01.916Z,12.80
2023-04-13T22:14:49.924Z,13.25
2023-04-13T22:17:31.182Z,12.02
2023-04-13T22:20:19.931Z,12.70
2023-04-13T22:23:03.039Z,12.32
2023-04-13T22:25:59.056Z,12.80
2023-04-13T22:28:41.130Z,12.30
2023-04-13T22:31:29.107Z,12.68
2023-04-13T22:34:10.029Z,12.68
2023-04-13T22:36:59.941Z,12.35
2023-04-13T22:39:43.097Z,12.82
2023-04-13T22:42:30.915Z,12.60
2023-04-13T22:45:13.040Z,12.80
2023-04-13T22:48:00.986Z,11.73
2023-04-13T22:50:44.088Z,12.32
2023-04-13T22:53:32.929Z,13.13
2023-04-13T22:56:16.080Z,12.32
2023-04-13T22:59:05.238Z,13.27
2023-04-13T23:01:46.135Z,12.05
2023-04-13T23:04:34.009Z,12.40
2023-04-13T23:07:15.034Z,12.73
2023-04-13T23:10:02.938Z,12.07
2023-04-13T23:12:59.928Z,11.88
2023-04-13T23:15:48.155Z,12.02
2023-04-13T23:18:29.074Z,12.13
2023-04-13T23:21:17.935Z,12.48
2023-04-13T23:23:59.054Z,11.75
2023-04-13T23:26:46.972Z,12.25
2023-04-13T23:29:30.091Z,11.68
2023-04-13T23:32:17.965Z,12.38
2023-04-13T23:34:59.530Z,12.23
2023-04-13T23:37:49.934Z,12.57
2023-04-13T23:40:31.194Z,11.88
2023-04-13T23:43:18.964Z,11.82
2023-04-13T23:46:02.193Z,12.30
2023-04-13T23:48:50.002Z,11.75
2023-04-13T23:51:32.104Z,12.00
2023-04-13T23:54:19.992Z,12.70
2023-04-13T23:57:01.717Z,12.27
2023-04-13T23:59:49.294Z,12.00
